Time;durP1;ratioP1;P1;durP2;ratioP2;P2;SDS_P1;SDS_P2;PMS_P1;PMS_P2;Temp;Humidity;BMP_temperature;BMP_pressure;BME280_temperature;BME280_humidity;BME280_pressure;Samples;Min_cycle;Max_cycle;Signal;HPM_P1;HPM_P2
2023/05/05 00:01:05;;;;;;;13.53;6.17;;;9.00;47.40;;;;;;5077831;28;46466;-61
2023/05/05 00:03:33;;;;;;;16.57;6.37;;;9.00;47.70;;;;;;5076643;28;46417;-64
2023/05/05 00:05:58;;;;;;;12.53;7.77;;;8.90;47.70;;;;;;5078406;28;46126;-63
2023/05/05 00:08:24;;;;;;;11.67;6.60;;;8.90;47.90;;;;;;5078859;28;46349;-63
2023/05/05 00:10:51;;;;;;;19.10;7.47;;;8.80;48.10;;;;;;5078310;28;46471;-62
2023/05/05 00:13:18;;;;;;;18.37;7.30;;;8.80;48.20;;;;;;5077694;28;46364;-61
2023/05/05 00:15:45;;;;;;;10.27;6.80;;;8.80;48.30;;;;;;5079812;28;46440;-63
2023/05/05 00:18:12;;;;;;;11.83;7.67;;;8.80;48.20;;;;;;5078272;28;46518;-63
2023/05/05 00:20:37;;;;;;;15.03;8.57;;;8.80;48.20;;;;;;5079513;28;45981;-62
2023/05/05 00:23:03;;;;;;;16.30;8.90;;;8.80;48.10;;;;;;5078616;28;46451;-62
2023/05/05 00:25:29;;;;;;;15.30;8.83;;;8.90;48.10;;;;;;5077235;27;46411;-61
2023/05/05 00:27:54;;;;;;;17.90;8.00;;;8.90;47.90;;;;;;5078880;28;46292;-64
2023/05/05 00:30:20;;;;;;;13.63;8.40;;;8.90;47.90;;;;;;5077387;28;46378;-63
2023/05/05 00:32:47;;;;;;;14.80;8.80;;;8.90;48.50;;;;;;5078944;28;46315;-64
2023/05/05 00:35:13;;;;;;;18.90;8.70;;;9.00;48.10;;;;;;5076394;28;46546;-64
2023/05/05 00:37:38;;;;;;;15.30;8.00;;;9.00;48.10;;;;;;5077785;28;46338;-61
2023/05/05 00:40:05;;;;;;;15.03;8.60;;;9.00;48.20;;;;;;5079029;28;46452;-63
2023/05/05 00:42:42;;;;;;;15.53;9.20;;;9.00;48.40;;;;;;5077642;28;46490;-63
2023/05/05 00:45:09;;;;;;;11.67;8.17;;;9.00;48.60;;;;;;5077265;28;48000;-62
2023/05/05 00:47:36;;;;;;;13.00;8.07;;;8.90;48.50;;;;;;5080081;28;46403;-62
2023/05/05 00:50:08;;;;;;;13.30;8.27;;;8.90;48.70;;;;;;5077427;28;46246;-62
2023/05/05 00:52:38;;;;;;;11.30;7.13;;;8.90;48.80;;;;;;5076404;27;46427;-62
2023/05/05 00:55:04;;;;;;;14.20;8.40;;;8.90;49.10;;;;;;5078806;28;46203;-62
2023/05/05 00:57:31;;;;;;;10.37;6.47;;;8.90;49.10;;;;;;5076632;28;45849;-61
2023/05/05 00:59:59;;;;;;;27.73;7.47;;;8.80;49.10;;;;;;5077293;28;46362;-62
2023/05/05 01:02:26;;;;;;;12.60;7.53;;;8.80;49.30;;;;;;5074377;28;46475;-61
2023/05/05 01:04:52;;;;;;;10.13;6.97;;;8.70;49.50;;;;;;5077143;28;46038;-62
2023/05/05 01:07:17;;;;;;;31.77;8.77;;;8.70;49.60;;;;;;5082268;28;46451;-62
2023/05/05 01:09:48;;;;;;;15.63;7.40;;;8.70;49.80;;;;;;5077623;28;45791;-63
2023/05/05 01:12:39;;;;;;;11.57;7.10;;;8.60;49.90;;;;;;5076521;28;46463;-61
2023/05/05 01:15:25;;;;;;;8.80;6.20;;;8.50;50.20;;;;;;5077491;28;47178;-62
2023/05/05 01:18:18;;;;;;;12.20;7.00;;;8.50;50.20;;;;;;5078802;28;46443;-63
2023/05/05 01:21:12;;;;;;;10.53;7.07;;;8.50;50.20;;;;;;5074437;28;46580;-63
2023/05/05 01:24:06;;;;;;;11.67;7.30;;;8.60;50.20;;;;;;5073002;28;46348;-61
2023/05/05 01:27:08;;;;;;;11.20;6.53;;;8.50;49.90;;;;;;5075545;28;46993;-65
2023/05/05 01:29:59;;;;;;;10.23;6.80;;;8.50;50.00;;;;;;5076529;28;46511;-62
2023/05/05 01:32:28;;;;;;;11.47;7.73;;;8.60;49.80;;;;;;5078861;28;45806;-61
2023/05/05 01:35:12;;;;;;;13.93;7.87;;;8.60;49.80;;;;;;5078497;28;46520;-63
2023/05/05 01:38:13;;;;;;;12.70;8.53;;;8.50;50.20;;;;;;5074578;28;46663;-62
2023/05/05 01:41:06;;;;;;;13.20;8.30;;;8.50;50.50;;;;;;5065935;27;45914;-63
2023/05/05 01:43:34;;;;;;;13.93;8.00;;;8.50;50.40;;;;;;5068776;28;45941;-62
2023/05/05 01:46:02;;;;;;;18.57;7.53;;;8.60;51.40;;;;;;5075107;28;46697;-62
2023/05/05 01:48:32;;;;;;;10.83;6.30;;;8.60;50.10;;;;;;5077207;28;46572;-63
2023/05/05 01:51:00;;;;;;;9.87;7.33;;;8.60;50.10;;;;;;5076578;28;46465;-63
2023/05/05 01:53:26;;;;;;;11.73;6.97;;;8.60;49.90;;;;;;5072944;28;46663;-64
2023/05/05 01:55:54;;;;;;;9.13;6.63;;;8.60;50.00;;;;;;5076441;28;45878;-63
2023/05/05 01:58:22;;;;;;;10.93;6.50;;;8.60;50.10;;;;;;5077877;28;47198;-63
2023/05/05 02:00:49;;;;;;;14.93;7.53;;;8.60;50.00;;;;;;5077589;28;45722;-63
2023/05/05 02:03:16;;;;;;;9.80;6.87;;;8.70;50.10;;;;;;5075039;28;46386;-62
2023/05/05 02:05:43;;;;;;;13.47;7.27;;;8.70;50.20;;;;;;5077515;28;46413;-62
2023/05/05 02:08:10;;;;;;;11.73;6.80;;;8.70;50.00;;;;;;5075924;28;47106;-64
2023/05/05 02:10:39;;;;;;;13.70;7.10;;;8.70;50.00;;;;;;5074202;28;46524;-62
2023/05/05 02:13:06;;;;;;;15.23;7.30;;;8.70;49.90;;;;;;5073125;28;46766;-63
2023/05/05 02:15:34;;;;;;;12.00;6.60;;;8.80;50.00;;;;;;5074545;28;46200;-62
2023/05/05 02:18:01;;;;;;;12.73;7.77;;;8.80;50.00;;;;;;5075052;28;47152;-64
2023/05/05 02:20:30;;;;;;;9.40;6.17;;;8.80;49.90;;;;;;5075094;28;46270;-64
2023/05/05 02:22:55;;;;;;;10.00;7.33;;;8.80;49.90;;;;;;5075265;28;46339;-63
2023/05/05 02:25:23;;;;;;;10.93;7.13;;;8.90;50.00;;;;;;5075814;28;46565;-63
2023/05/05 02:27:55;;;;;;;9.90;6.70;;;8.90;50.00;;;;;;5074928;28;48440;-61
2023/05/05 02:30:22;;;;;;;8.17;6.03;;;8.90;50.10;;;;;;5075697;28;46038;-62
2023/05/05 02:32:54;;;;;;;16.93;7.23;;;8.90;50.30;;;;;;5074173;28;45946;-62
2023/05/05 02:35:23;;;;;;;9.13;6.20;;;8.80;50.40;;;;;;5073752;28;46413;-61
2023/05/05 02:38:01;;;;;;;10.80;6.70;;;8.80;50.50;;;;;;5076660;28;46333;-63
2023/05/05 02:40:30;;;;;;;11.83;7.33;;;8.90;50.80;;;;;;5077240;28;46415;-62
2023/05/05 02:42:59;;;;;;;9.80;6.77;;;8.90;50.70;;;;;;5075503;28;46483;-62
2023/05/05 02:45:27;;;;;;;12.50;7.23;;;8.90;50.70;;;;;;5074814;28;46507;-62
2023/05/05 02:47:52;;;;;;;11.13;6.63;;;8.90;51.10;;;;;;5075245;28;46443;-62
2023/05/05 02:50:18;;;;;;;12.50;7.10;;;8.90;51.20;;;;;;5078151;28;46451;-61
2023/05/05 02:52:45;;;;;;;10.67;6.93;;;9.00;50.70;;;;;;5078929;28;46533;-62
2023/05/05 02:55:11;;;;;;;10.03;6.80;;;9.20;50.30;;;;;;5080671;28;46454;-62
2023/05/05 02:57:47;;;;;;;11.13;7.30;;;9.30;49.80;;;;;;5075613;28;46477;-64
2023/05/05 03:00:23;;;;;;;11.57;7.10;;;9.50;49.40;;;;;;5079479;28;46635;-63
2023/05/05 03:03:17;;;;;;;11.33;7.33;;;9.50;49.20;;;;;;5078525;28;46418;-64
2023/05/05 03:05:52;;;;;;;9.90;6.33;;;9.50;49.50;;;;;;5079832;28;45945;-64
2023/05/05 03:08:42;;;;;;;12.27;7.37;;;9.40;49.60;;;;;;5078833;28;47074;-63
2023/05/05 03:11:21;;;;;;;10.10;6.70;;;9.40;50.00;;;;;;5079612;28;46609;-65
2023/05/05 03:13:54;;;;;;;11.07;6.60;;;9.40;50.10;;;;;;5095285;27;45909;-63
2023/05/05 03:16:23;;;;;;;12.70;7.30;;;9.40;50.20;;;;;;5079183;28;46766;-63
2023/05/05 03:18:51;;;;;;;10.70;7.10;;;9.30;50.30;;;;;;5078799;28;46116;-61
2023/05/05 03:21:17;;;;;;;10.63;7.20;;;9.30;50.50;;;;;;5079717;28;46353;-63
2023/05/05 03:23:43;;;;;;;13.03;7.80;;;9.30;50.70;;;;;;5077851;28;46527;-63
2023/05/05 03:26:08;;;;;;;11.77;7.47;;;9.30;50.90;;;;;;5079013;28;46550;-62
2023/05/05 03:28:34;;;;;;;13.20;7.00;;;9.30;51.00;;;;;;5080227;28;46384;-62
2023/05/05 03:31:00;;;;;;;12.27;7.67;;;9.40;51.00;;;;;;5080001;28;46386;-64
2023/05/05 03:33:25;;;;;;;14.00;7.57;;;9.40;50.90;;;;;;5076311;28;46394;-63
2023/05/05 03:35:51;;;;;;;9.90;6.77;;;9.40;50.90;;;;;;5078385;28;45846;-62
2023/05/05 03:38:16;;;;;;;9.73;6.43;;;9.40;51.00;;;;;;5078631;28;47090;-64
2023/05/05 03:40:42;;;;;;;11.40;8.13;;;9.40;51.20;;;;;;5079030;28;46382;-64
2023/05/05 03:43:08;;;;;;;14.73;8.73;;;9.50;51.30;;;;;;5079408;28;46460;-63
2023/05/05 03:45:33;;;;;;;13.30;7.27;;;9.50;51.50;;;;;;5077359;28;46451;-63
2023/05/05 03:47:59;;;;;;;10.20;7.83;;;9.50;51.60;;;;;;5078281;28;47202;-61
2023/05/05 03:50:24;;;;;;;15.40;8.27;;;9.60;51.60;;;;;;5077459;28;46398;-62
2023/05/05 03:52:50;;;;;;;10.50;7.23;;;9.60;51.60;;;;;;5078431;28;46608;-62
2023/05/05 03:55:15;;;;;;;10.33;7.00;;;9.70;51.90;;;;;;5080475;28;46444;-63
2023/05/05 03:57:41;;;;;;;11.87;6.70;;;9.70;51.80;;;;;;5077437;28;46294;-64
2023/05/05 04:00:10;;;;;;;10.53;6.50;;;9.70;51.60;;;;;;5075167;28;46347;-63
2023/05/05 04:02:36;;;;;;;10.47;6.90;;;9.80;51.50;;;;;;5075821;28;46577;-65
2023/05/05 04:05:02;;;;;;;11.87;7.10;;;9.90;51.20;;;;;;5078087;28;46369;-65
2023/05/05 04:07:27;;;;;;;9.00;6.40;;;10.10;50.10;;;;;;5079298;28;46442;-62
2023/05/05 04:09:53;;;;;;;11.23;6.13;;;10.20;49.90;;;;;;5076183;28;45897;-62
2023/05/05 04:12:19;;;;;;;9.23;6.03;;;10.30;49.80;;;;;;5079507;28;46529;-63
2023/05/05 04:14:44;;;;;;;9.50;7.10;;;10.40;49.70;;;;;;5077465;28;46543;-62
2023/05/05 04:17:10;;;;;;;8.73;5.87;;;10.60;49.60;;;;;;5078871;28;46379;-61
2023/05/05 04:19:36;;;;;;;13.23;5.97;;;10.70;49.10;;;;;;5074006;28;46566;-62
2023/05/05 04:22:01;;;;;;;7.97;5.83;;;10.90;48.80;;;;;;5079193;28;46290;-63
2023/05/05 04:24:27;;;;;;;8.63;6.23;;;11.00;48.40;;;;;;5075291;28;46771;-62
2023/05/05 04:26:53;;;;;;;9.20;5.77;;;11.20;48.20;;;;;;5077154;28;46364;-63
2023/05/05 04:29:18;;;;;;;8.77;6.50;;;11.30;47.90;;;;;;5077113;28;46109;-61
2023/05/05 04:31:44;;;;;;;10.27;5.83;;;11.50;47.80;;;;;;5076670;28;45844;-63
2023/05/05 04:34:10;;;;;;;11.10;6.43;;;11.50;47.70;;;;;;5078853;28;46435;-62
2023/05/05 04:36:36;;;;;;;8.40;5.67;;;11.70;48.00;;;;;;5078607;28;46393;-62
2023/05/05 04:39:02;;;;;;;8.83;6.73;;;11.70;47.80;;;;;;5077553;28;45935;-62
2023/05/05 04:41:27;;;;;;;10.17;6.03;;;11.80;47.80;;;;;;5080196;28;46324;-62
2023/05/05 04:43:56;;;;;;;13.40;6.33;;;11.90;47.70;;;;;;5078602;28;46415;-62
2023/05/05 04:46:23;;;;;;;8.20;5.93;;;11.90;47.70;;;;;;5079584;28;46051;-61
2023/05/05 04:48:49;;;;;;;7.73;5.67;;;12.00;47.90;;;;;;5075488;28;46360;-63
2023/05/05 04:51:14;;;;;;;12.37;5.53;;;12.00;48.10;;;;;;5079161;28;46293;-62
2023/05/05 04:53:40;;;;;;;10.00;6.07;;;12.00;48.30;;;;;;5077426;28;46516;-63
2023/05/05 04:56:06;;;;;;;9.80;5.50;;;12.00;48.50;;;;;;5077170;28;46371;-63
2023/05/05 04:58:31;;;;;;;8.30;5.40;;;12.00;48.70;;;;;;5078968;28;46434;-62
2023/05/05 05:00:57;;;;;;;8.20;5.87;;;12.10;48.80;;;;;;5078564;28;46318;-62
2023/05/05 05:03:23;;;;;;;7.90;5.80;;;12.20;48.80;;;;;;5078623;28;45877;-61
2023/05/05 05:05:49;;;;;;;7.43;4.90;;;12.40;48.60;;;;;;5076751;28;47141;-63
2023/05/05 05:08:15;;;;;;;6.77;4.80;;;13.30;48.40;;;;;;5079308;28;46321;-62
2023/05/05 05:10:42;;;;;;;10.23;4.87;;;14.20;47.70;;;;;;5076360;28;46397;-62
2023/05/05 05:13:08;;;;;;;6.13;4.23;;;15.40;45.40;;;;;;5074052;28;46413;-63
2023/05/05 05:15:33;;;;;;;9.43;4.30;;;16.70;42.50;;;;;;5078390;28;46320;-63
2023/05/05 05:17:59;;;;;;;5.77;4.17;;;17.50;39.90;;;;;;5077298;28;46455;-63
2023/05/05 05:20:24;;;;;;;6.47;4.27;;;18.10;38.30;;;;;;5075350;28;46785;-63
2023/05/05 05:22:50;;;;;;;9.97;4.60;;;18.70;36.40;;;;;;5075277;28;46624;-63
2023/05/05 05:25:16;;;;;;;7.33;4.70;;;18.30;36.70;;;;;;5078758;28;46438;-63
2023/05/05 05:27:41;;;;;;;6.73;5.17;;;17.90;37.00;;;;;;5076915;28;45823;-62
2023/05/05 05:30:07;;;;;;;11.93;5.87;;;17.50;37.40;;;;;;5078551;28;46436;-61
2023/05/05 05:32:33;;;;;;;10.37;5.20;;;17.20;37.80;;;;;;5076189;28;46439;-62
2023/05/05 05:34:58;;;;;;;11.37;5.80;;;17.00;38.10;;;;;;5076772;28;46998;-64
2023/05/05 05:37:28;;;;;;;17.83;5.87;;;16.70;38.30;;;;;;5078381;28;45910;-63
2023/05/05 05:39:54;;;;;;;9.70;5.10;;;16.60;38.80;;;;;;5073359;28;46542;-63
2023/05/05 05:42:20;;;;;;;8.83;5.63;;;17.10;38.50;;;;;;5075780;28;46399;-63
2023/05/05 05:44:45;;;;;;;5.63;4.43;;;17.80;37.60;;;;;;5075792;28;46471;-64
2023/05/05 05:47:11;;;;;;;7.87;4.77;;;18.60;36.20;;;;;;5077942;28;45965;-65
2023/05/05 05:49:36;;;;;;;12.17;5.87;;;18.50;35.80;;;;;;5077320;28;46583;-64
2023/05/05 05:52:02;;;;;;;15.33;5.30;;;18.40;35.90;;;;;;5079225;28;46427;-62
2023/05/05 05:54:27;;;;;;;8.80;5.07;;;18.30;35.70;;;;;;5075987;28;47299;-62
2023/05/05 05:56:53;;;;;;;12.37;8.37;;;18.30;35.90;;;;;;5076308;28;46322;-63
2023/05/05 05:59:19;;;;;;;17.83;9.63;;;19.20;33.60;;;;;;5078826;28;46376;-64
2023/05/05 06:01:44;;;;;;;11.67;6.80;;;20.50;31.10;;;;;;5075160;28;46385;-61
2023/05/05 06:04:10;;;;;;;7.43;4.40;;;21.80;28.40;;;;;;5079205;28;47023;-63
2023/05/05 06:06:35;;;;;;;5.63;3.90;;;22.80;26.30;;;;;;5076345;28;46383;-62
2023/05/05 06:09:01;;;;;;;9.53;4.60;;;23.70;25.00;;;;;;5075581;28;46452;-62
2023/05/05 06:11:27;;;;;;;6.80;3.97;;;24.50;23.30;;;;;;5073091;28;46407;-64
2023/05/05 06:13:52;;;;;;;8.83;3.83;;;25.00;22.10;;;;;;5072507;28;47108;-62
2023/05/05 06:16:18;;;;;;;6.80;4.37;;;25.50;20.90;;;;;;5084857;28;46414;-61
2023/05/05 06:18:43;;;;;;;9.80;3.83;;;25.90;19.60;;;;;;5072451;28;46455;-62
2023/05/05 06:21:09;;;;;;;7.40;3.77;;;26.20;18.80;;;;;;5072532;28;46503;-63
2023/05/05 06:23:34;;;;;;;5.67;4.17;;;25.70;20.50;;;;;;5076262;27;46452;-63
2023/05/05 06:26:00;;;;;;;6.93;4.23;;;24.50;23.40;;;;;;5077333;28;46600;-64
2023/05/05 06:28:26;;;;;;;8.17;3.93;;;23.90;25.20;;;;;;5076956;28;46444;-62
2023/05/05 06:30:51;;;;;;;7.60;4.70;;;23.40;26.10;;;;;;5078988;28;46592;-59
2023/05/05 06:33:17;;;;;;;7.90;4.60;;;23.60;25.00;;;;;;5075438;28;46577;-62
2023/05/05 06:35:42;;;;;;;13.87;4.40;;;24.90;20.20;;;;;;5079893;28;46468;-61
2023/05/05 06:38:08;;;;;;;5.40;3.83;;;25.90;16.50;;;;;;5077095;28;46531;-63
2023/05/05 06:40:34;;;;;;;15.83;5.17;;;26.70;14.60;;;;;;5081433;28;46341;-64
2023/05/05 06:43:00;;;;;;;11.43;4.70;;;27.30;13.00;;;;;;5075487;28;46785;-63
2023/05/05 06:45:25;;;;;;;16.93;4.27;;;27.80;11.90;;;;;;5080308;28;46636;-61
2023/05/05 06:47:51;;;;;;;11.00;4.77;;;28.10;12.00;;;;;;5078090;28;46409;-64
2023/05/05 06:50:17;;;;;;;8.60;3.90;;;28.30;10.40;;;;;;5079872;28;46304;-64
2023/05/05 06:52:42;;;;;;;7.30;4.37;;;28.40;9.70;;;;;;5077674;28;46420;-62
2023/05/05 06:55:08;;;;;;;5.27;4.10;;;28.50;9.10;;;;;;5083664;28;46457;-63
2023/05/05 06:57:34;;;;;;;9.90;4.17;;;28.50;8.20;;;;;;5081608;28;46438;-62
2023/05/05 07:00:04;;;;;;;12.93;5.63;;;28.20;8.60;;;;;;5079000;28;46470;-62
2023/05/05 07:02:30;;;;;;;6.43;4.00;;;26.70;11.60;;;;;;5076567;28;46362;-63
2023/05/05 07:04:56;;;;;;;6.53;5.13;;;24.80;14.80;;;;;;5073441;28;46374;-66
2023/05/05 07:07:22;;;;;;;6.10;3.97;;;23.50;17.80;;;;;;5078206;28;46455;-61
2023/05/05 07:09:47;;;;;;;7.73;4.80;;;22.90;19.50;;;;;;5076088;28;47008;-62
2023/05/05 07:12:13;;;;;;;8.30;4.63;;;22.60;20.30;;;;;;5078679;28;48026;-62
2023/05/05 07:14:39;;;;;;;7.73;4.70;;;22.40;20.70;;;;;;5076728;28;46526;-63
2023/05/05 07:17:05;;;;;;;8.80;5.30;;;22.20;21.10;;;;;;5077633;28;46437;-63
2023/05/05 07:19:30;;;;;;;6.97;4.90;;;22.30;21.30;;;;;;5076541;28;46490;-64
2023/05/05 07:21:56;;;;;;;8.70;4.57;;;22.30;21.30;;;;;;5076112;28;46676;-65
2023/05/05 07:24:23;;;;;;;7.13;4.83;;;21.90;21.70;;;;;;5073948;28;46514;-66
2023/05/05 07:26:48;;;;;;;13.83;5.57;;;22.00;21.80;;;;;;5076659;28;46456;-62
2023/05/05 07:29:14;;;;;;;9.33;4.63;;;22.00;22.00;;;;;;5078653;28;46609;-64
2023/05/05 07:31:40;;;;;;;13.60;6.60;;;22.00;22.20;;;;;;5076568;28;46297;-63
2023/05/05 07:34:05;;;;;;;15.50;5.30;;;22.10;22.20;;;;;;5074400;28;46439;-64
2023/05/05 07:36:31;;;;;;;10.00;5.73;;;22.20;22.20;;;;;;5075194;28;46452;-64
2023/05/05 07:38:57;;;;;;;10.47;6.07;;;22.10;22.40;;;;;;5077469;28;46297;-63
2023/05/05 07:41:22;;;;;;;16.80;7.53;;;22.20;22.50;;;;;;5073330;28;46532;-64
2023/05/05 07:43:48;;;;;;;8.10;5.80;;;22.10;22.70;;;;;;5077192;28;46434;-65
2023/05/05 07:46:14;;;;;;;11.57;5.40;;;22.20;22.50;;;;;;5077174;28;46392;-65
2023/05/05 07:48:40;;;;;;;7.00;4.33;;;22.20;22.60;;;;;;5076763;28;46382;-64
2023/05/05 07:51:05;;;;;;;7.20;4.70;;;22.10;22.70;;;;;;5080046;28;46981;-65
2023/05/05 07:53:31;;;;;;;9.57;5.40;;;22.10;22.40;;;;;;5076184;28;46441;-66
2023/05/05 07:55:57;;;;;;;9.17;4.07;;;22.30;22.20;;;;;;5074585;28;46647;-67
2023/05/05 07:58:22;;;;;;;7.87;4.50;;;22.50;21.60;;;;;;5076600;28;46856;-67
2023/05/05 08:00:49;;;;;;;9.10;4.20;;;22.40;21.80;;;;;;5072474;28;46402;-66
2023/05/05 08:03:15;;;;;;;13.20;4.13;;;22.50;21.70;;;;;;5077799;28;46479;-64
2023/05/05 08:05:41;;;;;;;6.90;3.70;;;22.50;21.40;;;;;;5076164;28;46362;-66
2023/05/05 08:08:06;;;;;;;9.80;4.40;;;22.60;21.40;;;;;;5076361;28;46358;-63
2023/05/05 08:10:32;;;;;;;13.83;4.40;;;22.70;21.40;;;;;;5074877;28;48198;-65
2023/05/05 08:12:57;;;;;;;7.63;3.90;;;22.60;21.40;;;;;;5075071;28;45783;-67
2023/05/05 08:15:23;;;;;;;9.70;4.20;;;22.60;21.30;;;;;;5078128;28;46527;-65
2023/05/05 08:17:51;;;;;;;9.13;4.67;;;22.50;21.10;;;;;;5077961;28;46681;-66
2023/05/05 08:20:18;;;;;;;7.43;4.10;;;22.40;21.30;;;;;;5071895;28;46085;-66
2023/05/05 08:22:45;;;;;;;7.13;4.20;;;22.60;21.20;;;;;;5076671;28;46396;-66
2023/05/05 08:25:12;;;;;;;5.50;3.33;;;22.90;20.80;;;;;;5075113;28;46540;-66
2023/05/05 08:27:39;;;;;;;10.93;3.97;;;23.10;20.30;;;;;;5079615;28;46449;-65
2023/05/05 08:30:05;;;;;;;11.63;3.70;;;23.10;20.10;;;;;;5074392;28;47068;-66
2023/05/05 08:32:31;;;;;;;6.30;4.10;;;23.30;19.50;;;;;;5076940;28;46460;-65
2023/05/05 08:34:57;;;;;;;15.40;6.10;;;23.60;19.10;;;;;;5077720;28;46753;-68
2023/05/05 08:37:23;;;;;;;14.27;6.00;;;24.00;18.40;;;;;;5077786;28;46511;-68
2023/05/05 08:39:49;;;;;;;9.40;5.33;;;24.00;18.10;;;;;;5081760;28;45999;-65
2023/05/05 08:42:14;;;;;;;8.90;4.37;;;23.90;18.20;;;;;;5081549;28;46344;-68
2023/05/05 08:44:40;;;;;;;6.70;4.47;;;23.80;18.20;;;;;;5075462;28;46524;-66
2023/05/05 08:47:09;;;;;;;8.00;4.30;;;24.00;18.10;;;;;;5076259;28;46478;-67
2023/05/05 08:49:42;;;;;;;8.70;4.83;;;24.10;18.20;;;;;;5079707;28;46227;-67
2023/05/05 08:52:10;;;;;;;7.70;4.77;;;24.10;18.50;;;;;;5079781;28;46403;-62
2023/05/05 08:54:39;;;;;;;15.13;7.03;;;24.20;19.00;;;;;;5073616;28;46511;-67
2023/05/05 08:57:09;;;;;;;6.03;3.93;;;24.20;19.00;;;;;;5075050;28;46599;-66
2023/05/05 08:59:35;;;;;;;10.60;4.97;;;24.10;18.90;;;;;;5075473;28;46374;-65
2023/05/05 09:02:04;;;;;;;9.30;4.20;;;24.10;18.90;;;;;;5075869;28;46411;-65
2023/05/05 09:04:30;;;;;;;6.97;3.83;;;24.00;18.60;;;;;;5076754;28;46716;-64
2023/05/05 09:06:59;;;;;;;6.90;4.10;;;24.00;18.70;;;;;;5074419;28;46488;-65
2023/05/05 09:09:26;;;;;;;7.40;4.00;;;24.40;18.40;;;;;;5075970;28;46364;-65
2023/05/05 09:11:54;;;;;;;9.10;3.77;;;24.30;18.30;;;;;;5073605;28;46789;-67
2023/05/05 09:14:20;;;;;;;5.47;3.60;;;24.10;18.20;;;;;;5074022;28;46899;-66
2023/05/05 09:16:46;;;;;;;6.67;4.23;;;24.10;18.70;;;;;;5075279;28;46480;-69
2023/05/05 09:19:11;;;;;;;8.33;3.40;;;24.10;18.10;;;;;;5076271;28;46484;-65
2023/05/05 09:21:47;;;;;;;12.70;4.20;;;24.00;18.90;;;;;;5072825;28;46948;-66
2023/05/05 09:24:14;;;;;;;5.10;2.63;;;24.00;18.10;;;;;;5075901;28;46364;-64
2023/05/05 09:26:45;;;;;;;7.20;3.53;;;24.20;17.90;;;;;;5074210;28;46530;-64
2023/05/05 09:29:21;;;;;;;8.63;3.67;;;24.50;17.50;;;;;;5075121;28;47045;-66
2023/05/05 09:32:09;;;;;;;6.07;3.60;;;24.80;16.90;;;;;;5070986;28;46319;-66
2023/05/05 09:34:36;;;;;;;5.73;3.87;;;25.00;16.70;;;;;;5077688;28;46299;-66
2023/05/05 09:37:02;;;;;;;8.93;4.80;;;24.80;16.50;;;;;;5077353;28;46509;-67
2023/05/05 09:39:28;;;;;;;12.53;7.07;;;24.60;17.00;;;;;;5077755;28;47366;-68
2023/05/05 09:41:53;;;;;;;6.70;4.57;;;24.50;17.20;;;;;;5074565;28;46409;-66
2023/05/05 09:44:36;;;;;;;5.90;3.80;;;24.40;17.10;;;;;;5075386;28;46437;-67
2023/05/05 09:47:02;;;;;;;11.53;5.77;;;24.40;17.00;;;;;;5074933;28;46593;-65
2023/05/05 09:49:29;;;;;;;11.83;5.67;;;24.40;16.60;;;;;;5076551;28;46066;-66
2023/05/05 09:51:56;;;;;;;12.53;5.73;;;24.50;16.80;;;;;;5072944;28;46784;-66
2023/05/05 09:54:29;;;;;;;7.13;4.70;;;24.60;16.70;;;;;;5074198;28;46445;-67
2023/05/05 09:56:56;;;;;;;9.50;5.10;;;24.60;16.70;;;;;;5074536;28;46624;-66
2023/05/05 09:59:22;;;;;;;7.90;4.27;;;24.60;16.80;;;;;;5079535;28;47166;-67
2023/05/05 10:01:49;;;;;;;7.77;4.50;;;25.00;16.10;;;;;;5075840;28;46642;-67
2023/05/05 10:04:25;;;;;;;11.53;4.00;;;25.40;15.40;;;;;;5076622;28;46376;-68
2023/05/05 10:06:51;;;;;;;16.40;4.20;;;25.70;15.20;;;;;;5075861;28;46463;-66
2023/05/05 10:09:16;;;;;;;7.80;4.00;;;25.70;15.20;;;;;;5079944;28;47104;-68
2023/05/05 10:11:45;;;;;;;9.80;4.20;;;25.50;15.10;;;;;;5077542;28;46515;-66
2023/05/05 10:14:14;;;;;;;7.30;3.57;;;25.40;15.10;;;;;;5080090;28;46392;-66
2023/05/05 10:16:49;;;;;;;6.83;3.37;;;25.50;15.10;;;;;;5078290;28;46449;-67
2023/05/05 10:19:17;;;;;;;6.80;3.33;;;25.20;14.90;;;;;;5079597;28;46397;-67
2023/05/05 10:21:52;;;;;;;5.47;2.87;;;25.20;15.00;;;;;;5078679;28;45934;-66
2023/05/05 10:24:49;;;;;;;17.93;3.27;;;24.90;14.80;;;;;;5077079;28;46462;-66
2023/05/05 10:27:21;;;;;;;7.13;3.37;;;25.00;14.80;;;;;;5076739;28;46508;-66
2023/05/05 10:30:06;;;;;;;7.10;3.30;;;25.20;14.90;;;;;;5077632;28;46832;-66
2023/05/05 10:32:47;;;;;;;5.77;3.30;;;25.40;14.80;;;;;;5079435;28;46515;-66
2023/05/05 10:35:18;;;;;;;6.20;3.10;;;25.80;13.90;;;;;;5080338;28;46472;-67
2023/05/05 10:37:45;;;;;;;7.23;3.30;;;25.80;13.50;;;;;;5075513;28;46715;-67
2023/05/05 10:40:12;;;;;;;4.40;3.10;;;25.80;13.80;;;;;;5080216;28;46167;-65
2023/05/05 10:42:41;;;;;;;7.10;4.20;;;26.20;12.20;;;;;;5080364;28;46429;-64
2023/05/05 10:45:07;;;;;;;10.60;4.10;;;26.70;11.50;;;;;;5078224;28;46522;-69
2023/05/05 10:47:35;;;;;;;8.70;3.90;;;26.70;12.30;;;;;;5076474;27;46025;-66
2023/05/05 10:50:05;;;;;;;8.40;3.60;;;26.50;12.40;;;;;;5076750;28;46325;-67
2023/05/05 10:52:55;;;;;;;5.87;3.50;;;26.50;12.50;;;;;;5075461;28;46514;-67
2023/05/05 10:55:27;;;;;;;6.33;3.10;;;26.30;12.60;;;;;;5078885;28;45820;-66
2023/05/05 10:57:53;;;;;;;6.57;3.30;;;26.50;12.70;;;;;;5076325;28;46673;-65
2023/05/05 11:00:38;;;;;;;5.67;2.87;;;26.80;12.20;;;;;;5077461;28;47003;-66
2023/05/05 11:03:16;;;;;;;10.27;3.90;;;27.20;11.30;;;;;;5064725;28;46636;-65
2023/05/05 11:06:04;;;;;;;6.00;3.43;;;27.00;11.60;;;;;;5076341;28;46503;-65
2023/05/05 11:08:31;;;;;;;9.03;3.77;;;26.70;11.90;;;;;;5078414;28;46490;-65
2023/05/05 11:10:57;;;;;;;6.53;3.30;;;27.00;11.80;;;;;;5075664;27;46335;-67
2023/05/05 11:13:22;;;;;;;5.83;3.40;;;27.20;11.20;;;;;;5077155;28;46423;-66
2023/05/05 11:15:51;;;;;;;5.63;3.40;;;27.30;10.70;;;;;;5076552;28;46362;-65
2023/05/05 11:18:30;;;;;;;9.00;3.37;;;27.40;10.30;;;;;;5075657;28;46609;-66
2023/05/05 11:20:58;;;;;;;7.07;3.10;;;27.30;10.20;;;;;;5076411;28;46518;-63
2023/05/05 11:23:25;;;;;;;8.30;4.30;;;27.00;10.60;;;;;;5081757;28;46441;-65
2023/05/05 11:25:51;;;;;;;16.00;8.40;;;27.00;11.10;;;;;;5078949;28;46384;-63
2023/05/05 11:28:24;;;;;;;22.10;3.37;;;26.90;10.90;;;;;;5076345;28;46754;-65
2023/05/05 11:31:16;;;;;;;15.00;3.10;;;26.50;10.00;;;;;;5074841;28;47398;-65
2023/05/05 11:33:42;;;;;;;8.60;3.60;;;26.20;9.50;;;;;;5080095;28;46335;-66
2023/05/05 11:36:15;;;;;;;12.80;3.90;;;25.80;10.40;;;;;;5078040;28;46435;-66
2023/05/05 11:39:02;;;;;;;4.87;3.23;;;25.70;10.60;;;;;;5079588;28;45819;-66
2023/05/05 11:41:58;;;;;;;9.03;4.10;;;24.70;11.00;;;;;;5076333;28;46505;-66
2023/05/05 11:44:31;;;;;;;5.47;3.20;;;24.30;11.30;;;;;;5074789;28;46534;-68
2023/05/05 11:46:58;;;;;;;8.77;3.67;;;24.20;11.60;;;;;;5072923;28;47020;-67
2023/05/05 11:49:34;;;;;;;10.20;3.83;;;24.00;12.90;;;;;;5077023;28;45916;-68
2023/05/05 11:52:01;;;;;;;7.87;3.43;;;24.00;12.30;;;;;;5078184;28;46683;-67
2023/05/05 11:54:27;;;;;;;8.57;3.57;;;24.00;13.30;;;;;;5077882;28;46273;-67
2023/05/05 11:56:54;;;;;;;11.97;4.50;;;24.20;13.10;;;;;;5076462;28;46554;-65
2023/05/05 11:59:20;;;;;;;6.20;3.37;;;24.20;13.30;;;;;;5078342;28;45904;-65
2023/05/05 12:01:46;;;;;;;7.80;3.50;;;24.20;13.20;;;;;;5074379;28;46755;-65
2023/05/05 12:04:15;;;;;;;7.50;3.40;;;24.40;12.80;;;;;;5074602;28;47049;-65
2023/05/05 12:06:41;;;;;;;6.10;3.27;;;24.20;12.20;;;;;;5073677;28;46807;-64
2023/05/05 12:09:14;;;;;;;5.73;3.37;;;24.30;13.00;;;;;;5078205;28;46440;-65
2023/05/05 12:11:48;;;;;;;8.03;3.80;;;24.50;12.70;;;;;;5075550;28;46373;-66
2023/05/05 12:14:14;;;;;;;15.70;7.30;;;24.80;12.20;;;;;;5075684;28;47011;-64
2023/05/05 12:16:39;;;;;;;9.13;3.70;;;24.90;12.20;;;;;;5078637;28;46476;-65
2023/05/05 12:19:10;;;;;;;14.53;3.60;;;25.10;11.80;;;;;;5075946;28;46556;-63
2023/05/05 12:21:37;;;;;;;9.23;3.80;;;25.20;11.70;;;;;;5077327;27;47354;-64
2023/05/05 12:24:02;;;;;;;6.00;3.40;;;25.20;11.40;;;;;;5077469;28;46412;-65
2023/05/05 12:26:31;;;;;;;4.30;2.90;;;25.20;11.60;;;;;;5079458;28;46133;-64
2023/05/05 12:28:58;;;;;;;8.90;3.57;;;25.30;11.10;;;;;;5078332;28;46367;-65
2023/05/05 12:31:51;;;;;;;17.63;3.77;;;25.50;10.40;;;;;;5079027;28;46200;-65
2023/05/05 12:34:17;;;;;;;6.73;3.57;;;25.50;11.20;;;;;;5074042;28;46385;-64
2023/05/05 12:36:43;;;;;;;5.67;3.90;;;26.00;10.80;;;;;;5078459;28;45767;-65
2023/05/05 12:39:08;;;;;;;8.60;3.37;;;26.20;10.80;;;;;;5077630;28;46467;-65
2023/05/05 12:41:34;;;;;;;8.43;3.40;;;26.30;10.60;;;;;;5079136;28;47030;-64
2023/05/05 12:44:02;;;;;;;6.33;3.63;;;25.90;10.10;;;;;;5077008;28;46532;-65
2023/05/05 12:46:28;;;;;;;5.30;3.37;;;25.60;10.30;;;;;;5079454;28;46300;-65
2023/05/05 12:49:03;;;;;;;4.80;2.97;;;25.50;9.90;;;;;;5074863;28;46511;-65
2023/05/05 12:51:30;;;;;;;12.40;3.80;;;25.70;9.60;;;;;;5079853;28;46377;-64
2023/05/05 12:54:02;;;;;;;7.60;3.57;;;25.70;10.60;;;;;;5073923;28;45870;-64